Latest Weather Observations for Thevenard

IDS60801

Issued at 7:31 am CDT Sunday 21 December 2014 (issued every 30 minutes, with the page automatically refreshed every 10 minutes)

About weather observations | Map of weather stations | Latest weather observations for SA | Other Formats
Station Details ID: 018200 Name: THEVENARD WIND Lat: -32.18 Lon: 133.63 Height: 8.85 m
Data from the previous 72 hours. | See also: Recent months for locations in South Australia
Date/Time
CDT
Temp
°C
App
Temp
°C
Dew
Point
Rel
Hum
%
Delta-T
°C
Wind Press
QNH
hPa
Press
MSL
hPa
Rain
since 9 am
mm
Dir
 
Spd
km/h
Gust
km/h
Spd
kts
Gust
kts
21/07:30am - - - - - NE 20 24 11 13 - - -
21/07:00am - - - - - NE 28 33 15 18 - - -
21/06:30am - - - - - NE 17 24 9 13 - - -
21/06:00am - - - - - NE 19 22 10 12 - - -
21/05:30am - - - - - ENE 11 17 6 9 - - -
21/05:00am - - - - - E 4 6 2 3 - - -
21/04:30am - - - - - E 9 11 5 6 - - -
21/04:00am - - - - - ESE 11 13 6 7 - - -
21/03:30am - - - - - ESE 11 13 6 7 - - -
21/03:00am - - - - - SE 7 9 4 5 - - -
21/02:30am - - - - - ESE 7 9 4 5 - - -
21/02:00am - - - - - ESE 7 9 4 5 - - -
21/01:30am - - - - - ESE 11 13 6 7 - - -
21/01:00am - - - - - ESE 11 13 6 7 - - -
21/12:30am - - - - - SE 13 15 7 8 - - -
21/12:00am - - - - - SE 13 17 7 9 - - -
 
Date/Time
CDT
Temp
°C
App
Temp
°C
Dew
Point
Rel
Hum
%
Delta-T
°C
Wind Press
QNH
hPa
Press
MSL
hPa
Rain
since 9 am
mm
Dir
 
Spd
km/h
Gust
km/h
Spd
kts
Gust
kts
20/11:30pm - - - - - SSE 17 19 9 10 - - -
20/11:00pm - - - - - SSE 20 24 11 13 - - -
20/10:30pm - - - - - SE 19 24 10 13 - - -
20/10:00pm - - - - - SSE 22 24 12 13 - - -
20/09:30pm - - - - - SSE 24 30 13 16 - - -
20/09:00pm - - - - - SE 24 30 13 16 - - -
20/08:30pm - - - - - SSE 32 39 17 21 - - -
20/08:00pm - - - - - SSE 33 39 18 21 - - -
20/07:30pm - - - - - SSE 33 39 18 21 - - -
20/07:00pm - - - - - S 35 41 19 22 - - -
20/06:30pm - - - - - S 33 39 18 21 - - -
20/06:00pm - - - - - S 33 39 18 21 - - -
20/05:30pm - - - - - S 32 37 17 20 - - -
20/05:00pm - - - - - S 32 37 17 20 - - -
20/04:30pm - - - - - SSE 30 35 16 19 - - -
20/04:00pm - - - - - SSE 32 37 17 20 - - -
20/03:30pm - - - - - S 32 37 17 20 - - -
20/03:00pm - - - - - S 32 35 17 19 - - -
20/02:30pm - - - - - S 32 35 17 19 - - -
20/02:00pm - - - - - S 28 33 15 18 - - -
20/01:30pm - - - - - S 28 32 15 17 - - -
20/01:00pm - - - - - S 30 33 16 18 - - -
20/12:30pm - - - - - S 24 28 13 15 - - -
20/12:00pm - - - - - SSW 20 24 11 13 - - -
20/11:30am - - - - - SSW 17 20 9 11 - - -
20/11:00am - - - - - SSW 11 15 6 8 - - -
20/10:30am - - - - - ESE 6 9 3 5 - - -
20/10:00am - - - - - ENE 9 13 5 7 - - -
20/09:30am - - - - - E 11 15 6 8 - - -
20/09:00am - - - - - E 19 22 10 12 - - -
20/08:30am - - - - - ESE 15 20 8 11 - - -
20/08:00am - - - - - E 20 22 11 12 - - -
20/07:30am - - - - - ESE 28 32 15 17 - - -
20/07:00am - - - - - ESE 24 30 13 16 - - -
20/06:30am - - - - - ESE 24 28 13 15 - - -
20/06:00am - - - - - ESE 24 30 13 16 - - -
20/05:30am - - - - - ESE 24 32 13 17 - - -
20/05:00am - - - - - ESE 28 33 15 18 - - -
20/04:30am - - - - - ESE 26 32 14 17 - - -
20/04:00am - - - - - ESE 28 37 15 20 - - -
20/03:30am - - - - - ESE 30 41 16 22 - - -
20/03:00am - - - - - SE 28 37 15 20 - - -
20/02:30am - - - - - SE 26 37 14 20 - - -
20/02:00am - - - - - SE 30 39 16 21 - - -
20/01:30am - - - - - SE 28 37 15 20 - - -
20/01:00am - - - - - SE 28 35 15 19 - - -
20/12:30am - - - - - SE 35 41 19 22 - - -
20/12:00am - - - - - SE 33 41 18 22 - - -
 
Date/Time
CDT
Temp
°C
App
Temp
°C
Dew
Point
Rel
Hum
%
Delta-T
°C
Wind Press
QNH
hPa
Press
MSL
hPa
Rain
since 9 am
mm
Dir
 
Spd
km/h
Gust
km/h
Spd
kts
Gust
kts
19/11:30pm - - - - - SE 35 43 19 23 - - -
19/11:00pm - - - - - SSE 35 41 19 22 - - -
19/10:30pm - - - - - SSE 39 44 21 24 - - -
19/10:00pm - - - - - SSE 37 44 20 24 - - -
19/09:30pm - - - - - SSE 39 48 21 26 - - -
19/09:00pm - - - - - SSE 39 46 21 25 - - -
19/08:30pm - - - - - SSE 39 44 21 24 - - -
19/08:00pm - - - - - SSE 37 44 20 24 - - -
19/07:30pm - - - - - S 39 48 21 26 - - -
19/07:00pm - - - - - S 41 46 22 25 - - -
19/06:30pm - - - - - S 37 44 20 24 - - -
19/06:00pm - - - - - S 37 44 20 24 - - -
19/05:30pm - - - - - S 39 46 21 25 - - -
19/05:00pm - - - - - S 37 44 20 24 - - -
19/04:30pm - - - - - S 37 44 20 24 - - -
19/04:00pm - - - - - S 37 44 20 24 - - -
19/03:30pm - - - - - S 37 43 20 23 - - -
19/03:00pm - - - - - S 37 43 20 23 - - -
19/02:30pm - - - - - S 35 41 19 22 - - -
19/02:00pm - - - - - S 32 37 17 20 - - -
19/01:30pm - - - - - S 30 35 16 19 - - -
19/01:00pm - - - - - S 26 32 14 17 - - -
19/12:30pm - - - - - S 24 30 13 16 - - -
19/12:00pm - - - - - S 24 30 13 16 - - -
19/11:30am - - - - - S 22 28 12 15 - - -
19/11:00am - - - - - SSE 19 22 10 12 - - -
19/10:30am - - - - - SSE 20 26 11 14 - - -
19/10:00am - - - - - SE 15 20 8 11 - - -
19/09:30am - - - - - SE 15 24 8 13 - - -
19/09:00am - - - - - ESE 17 26 9 14 - - -
19/08:30am - - - - - E 22 28 12 15 - - -
19/08:00am - - - - - E 22 26 12 14 - - -
19/07:30am - - - - - E 22 26 12 14 - - -
19/07:00am - - - - - E 22 28 12 15 - - -
19/06:30am - - - - - E 22 28 12 15 - - -
19/06:00am - - - - - ESE 22 28 12 15 - - -
19/05:30am - - - - - ESE 26 32 14 17 - - -
19/05:00am - - - - - ESE 26 30 14 16 - - -
19/04:30am - - - - - ESE 24 30 13 16 - - -
19/04:00am - - - - - ESE 20 26 11 14 - - -
19/03:30am - - - - - E 22 28 12 15 - - -
19/03:00am - - - - - E 22 28 12 15 - - -
19/02:30am - - - - - SE 20 28 11 15 - - -
19/02:00am - - - - - SE 22 30 12 16 - - -
19/01:30am - - - - - SSE 22 28 12 15 - - -
19/01:00am - - - - - SSE 24 30 13 16 - - -
19/12:30am - - - - - SE 24 30 13 16 - - -
19/12:00am - - - - - SSE 26 32 14 17 - - -
 
Date/Time
CDT
Temp
°C
App
Temp
°C
Dew
Point
Rel
Hum
%
Delta-T
°C
Wind Press
QNH
hPa
Press
MSL
hPa
Rain
since 9 am
mm
Dir
 
Spd
km/h
Gust
km/h
Spd
kts
Gust
kts
18/11:30pm - - - - - SSE 26 33 14 18 - - -
18/11:00pm - - - - - SSE 28 33 15 18 - - -
18/10:30pm - - - - - SSE 28 33 15 18 - - -
18/10:00pm - - - - - SSE 26 33 14 18 - - -
18/09:30pm - - - - - SSE 28 33 15 18 - - -
18/09:00pm - - - - - SSE 28 33 15 18 - - -
18/08:30pm - - - - - S 28 35 15 19 - - -
18/08:00pm - - - - - S 28 33 15 18 - - -
18/07:30pm - - - - - S 28 33 15 18 - - -
18/07:00pm - - - - - S 28 33 15 18 - - -
18/06:30pm - - - - - S 30 37 16 20 - - -
18/06:00pm - - - - - S 32 35 17 19 - - -
18/05:30pm - - - - - S 30 35 16 19 - - -
18/05:00pm - - - - - S 28 33 15 18 - - -
18/04:30pm - - - - - S 30 35 16 19 - - -
18/04:00pm - - - - - S 30 37 16 20 - - -
18/03:30pm - - - - - S 32 37 17 20 - - -
18/03:00pm - - - - - S 30 37 16 20 - - -
18/02:30pm - - - - - S 33 39 18 21 - - -
18/02:00pm - - - - - S 33 39 18 21 - - -
18/01:30pm - - - - - S 30 35 16 19 - - -
18/01:00pm - - - - - S 28 37 15 20 - - -
18/12:30pm - - - - - SW 20 30 11 16 - - -
18/12:00pm - - - - - S 24 28 13 15 - - -
18/11:30am - - - - - S 24 26 13 14 - - -
18/11:00am - - - - - S 24 30 13 16 - - -
18/10:30am - - - - - S 24 32 13 17 - - -
18/10:00am - - - - - S 24 28 13 15 - - -
18/09:30am - - - - - S 22 28 12 15 - - -
18/09:00am - - - - - S 19 20 10 11 - - -
18/08:30am - - - - - S 20 24 11 13 - - -
18/08:00am - - - - - S 20 24 11 13 - - -

Other Formats:

Comma delimited format used in spreadsheet applications
http://www.bom.gov.au/fwo/IDS60801/IDS60801.95653.axf

JavaScript Object Notation format (JSON) in row-major order
http://www.bom.gov.au/fwo/IDS60801/IDS60801.95653.json